Flight Number: EUR1419 Duration: 5:00
Departure: Cairo Int'll Airport (HECA) at 08:00 Distance: 1891 Nm
Arrival: Gatwick Airport (EGKK) at 13:00 Equipment: B757-200

Weather Information
Cairo Airport, Egypt (HECA) 30-08N 031-24E 74M Oct 19, 2018 - 01:30 PM EDT / 2018.10.19 1730 UTC
Wind: from the NNW (330 degrees) at 6 MPH (5 KT):0
Visibility: 3 mile(s):0 Temperature: 80 F (27 C) Dew Point: 59 F (15 C) Relative Humidity: 47% Pressure (altimeter): 29.94 in. Hg (1014 hPa)
ob: HECA 191730Z 33005KT 6000 NSC 27/15 Q1014 NOSIG cycle: 17
Sunrise: 04:02 Sunset: 15:16 (UTC)

London / Gatwick Airport, United Kingdom (EGKK) 51-09N 000-11W 0M Oct 19, 2018 - 01:50 PM EDT / 2018.10.19 1750 UTC
Wind: from the WNW (300 degrees) at 5 MPH (4 KT) (direction variable):0
Visibility: greater than 7 mile(s):0 Temperature: 55 F (13 C) Dew Point: 44 F (7 C) Relative Humidity: 66% Pressure (altimeter): 30.33 in. Hg (1027 hPa)
ob: EGKK 191750Z 30004KT 190V340 CAVOK 13/07 Q1027 cycle: 18
Sunrise: 06:35 Sunset: 16:55 (UTC)

TAF:2018/10/19 18:12 TAF EGKK 191707Z 1918/2024 34004KT CAVOK BECMG 1922/2001 6000 PROB30 2001/2009 0500 FG VV/// BECMG 2009/2012 CAVOK BECMG 2021/2024 5000 HZ

Previous Pireps for this route
Date Aircraft Flight time Fuel used Landing rate On time
2012-08-18B7775.00820000No
2012-08-27B77704.4361634-679No
2012-09-08B77704.3656427-466No
2012-09-10B7774.30800000No
2013-10-04A32105.1418463-423Charter
2013-12-05B73705.2440782-364Charter
2014-01-20B757-20004.5732595-334No
2014-02-16B77704.4754139-282Yes
2014-04-13B757-20005.5239730-288No
2014-05-22B757-20004.4132526-130Yes
2014-07-19B757-20004.4143942-782Yes
2014-07-21B757-20004.2929935-165Yes
2014-08-07B77704.3452656-152Yes
2014-08-21B757-20004.5135056-241No
2014-09-19B757-20004.4131107-191Yes
2014-10-06B757-20004.2929747-430Yes
2014-10-14B7774.15882090Yes
2014-12-19B757-20004.5331409-185Yes
2015-02-18B757-2005.0242164-610No
2015-04-19B757-20004.5130532-161Yes
2015-05-04B757-20005.0442854-6Charter
2015-12-29B757-20004.3928400-188Yes
2016-02-13B77704.4062643-263Yes
2016-07-26B7774.252156500Yes
2016-08-29B77704.3971901-413Charter
2017-06-04B74700Charter
2017-06-04B74700Charter
2017-06-07B74704.16990760Charter
2017-06-11B74704.2010051150Charter
(pireps marked green are flown by you)

Route map